TimeEDT,TemperatureF,Dew PointF,Humidity,Sea Level PressureIn,VisibilityMPH,Wind Direction,Wind SpeedMPH,Gust SpeedMPH,PrecipitationIn,Events,Conditions,WindDirDegrees,DateUTC
12:53 AM,45.0,39.0,80,29.50,10.0,SSW,3.5,-,N/A,,Overcast,210,2012-11-01 04:53:00
1:43 AM,46.4,37.4,71,29.50,10.0,SSW,5.8,-,N/A,,Overcast,200,2012-11-01 05:43:00
1:53 AM,46.0,37.9,73,29.50,10.0,South,5.8,-,N/A,,Overcast,190,2012-11-01 05:53:00
2:16 AM,44.6,37.4,76,29.49,10.0,South,9.2,-,N/A,,Overcast,180,2012-11-01 06:16:00
2:53 AM,45.0,37.0,74,29.49,10.0,South,5.8,-,N/A,,Overcast,180,2012-11-01 06:53:00
3:53 AM,45.0,37.0,74,29.49,10.0,South,4.6,-,N/A,,Overcast,170,2012-11-01 07:53:00
4:53 AM,44.1,37.0,76,29.49,10.0,South,8.1,-,N/A,,Overcast,180,2012-11-01 08:53:00
5:53 AM,45.0,36.0,71,29.49,10.0,South,4.6,-,N/A,,Overcast,180,2012-11-01 09:53:00
6:53 AM,44.1,35.1,71,29.49,10.0,South,4.6,-,N/A,,Overcast,170,2012-11-01 10:53:00
8:53 AM,44.1,36.0,73,29.52,10.0,South,5.8,-,N/A,,Clear,180,2012-11-01 12:53:00
9:53 AM,45.0,36.0,71,29.52,10.0,South,9.2,-,N/A,,Scattered Clouds,190,2012-11-01 13:53:00
10:53 AM,46.9,36.0,66,29.51,10.0,South,11.5,-,N/A,,Overcast,190,2012-11-01 14:53:00
11:45 AM,48.2,37.4,66,29.50,10.0,SSE,8.1,-,N/A,,Overcast,160,2012-11-01 15:45:00
11:53 AM,48.0,37.0,66,29.51,10.0,SSW,8.1,-,N/A,,Overcast,200,2012-11-01 15:53:00
12:31 PM,48.2,35.6,62,29.49,10.0,SSW,6.9,-,N/A,,Overcast,200,2012-11-01 16:31:00
12:53 PM,48.0,36.0,63,29.49,10.0,SW,6.9,-,N/A,,Overcast,220,2012-11-01 16:53:00
1:53 PM,48.0,37.9,68,29.48,10.0,SSW,4.6,-,0.01,Rain,Light Rain,200,2012-11-01 17:53:00
2:53 PM,48.9,39.9,71,29.48,10.0,South,8.1,-,0.00,,Overcast,180,2012-11-01 18:53:00
3:04 PM,48.2,39.2,71,29.47,10.0,South,6.9,-,N/A,,Overcast,190,2012-11-01 19:04:00
3:53 PM,48.0,39.0,71,29.49,10.0,South,9.2,-,0.00,Rain,Light Rain,180,2012-11-01 19:53:00
4:53 PM,48.0,39.0,71,29.49,10.0,South,8.1,-,N/A,,Overcast,190,2012-11-01 20:53:00
5:53 PM,46.9,39.9,77,29.50,10.0,SSW,3.5,-,N/A,,Overcast,200,2012-11-01 21:53:00
6:53 PM,46.0,41.0,83,29.51,10.0,South,3.5,-,0.00,Rain,Light Rain,170,2012-11-01 22:53:00
7:25 PM,46.4,39.2,76,29.50,10.0,SSE,5.8,-,0.00,Rain,Light Rain,150,2012-11-01 23:25:00
7:50 PM,44.6,41.0,87,29.50,10.0,South,6.9,-,0.00,,Overcast,170,2012-11-01 23:50:00
7:53 PM,45.0,41.0,86,29.51,10.0,South,5.8,-,0.00,,Overcast,170,2012-11-01 23:53:00
8:03 PM,46.4,41.0,81,29.50,10.0,South,5.8,-,N/A,,Overcast,180,2012-11-02 00:03:00
8:53 PM,45.0,41.0,86,29.51,10.0,South,6.9,-,0.00,Rain,Light Rain,180,2012-11-02 00:53:00
9:53 PM,44.1,39.9,85,29.51,10.0,South,8.1,-,0.00,,Overcast,180,2012-11-02 01:53:00
10:53 PM,44.1,39.9,85,29.51,10.0,South,6.9,-,N/A,,Overcast,180,2012-11-02 02:53:00
11:53 PM,45.0,39.0,80,29.51,10.0,South,9.2,-,N/A,,Overcast,170,2012-11-02 03:53:00